Flight Track Log - Related Links

Times and Time Zones

All times are in EDT time to prevent confusion due to time zone crossing. See the XOJ552 flight status page for this flight to view local times or setup timezone preferences in your user account.

Time Position Orientation Groundspeed Altitude Reporting Facility
EDT Latitude Longitude Course Direction KTS MPH feet Rate Location/Type
Wed 02:55:30 PM 34.1819 -118.4881 77° East 175 201 41,000  Level Los Angeles Center
Wed 02:56:32 PM 34.1731 -118.4397 103° East 222 255 4,300 -16,032 Descending Los Angeles Center
Wed 02:57:35 PM 34.2369 -118.4347 North 240 276 7,600 3,504 Climbing Los Angeles Center
Wed 02:58:37 PM 34.3189 -118.4481 352° North 294 338 11,600 3,484 Climbing Los Angeles Center
Wed 02:59:39 PM 34.4036 -118.4283 11° North 325 374 14,800 2,952 Climbing Los Angeles Center
Wed 03:00:41 PM 34.4636 -118.3331 53° Northeast 357 411 17,700 2,613 Climbing Los Angeles Center
Wed 03:01:00 PM 34.6224 -118.0184 77° East  Level FlightAware Approximate
Wed 03:01:43 PM 34.5275 -118.2328 52° Northeast 376 433 20,200  Level Los Angeles Center
Wed 03:02:45 PM 34.6086 -118.1014 53° Northeast 413 475 22,900 2,371 Climbing Los Angeles Center
Wed 03:03:47 PM 34.6414 -117.9622 74° East 436 502 25,100 2,226 Climbing Los Angeles Center
Wed 03:04:49 PM 34.6586 -117.8131 82° East 447 514 27,500 2,323 Climbing Los Angeles Center
Wed 03:05:51 PM 34.6742 -117.6622 83° East 453 521 29,900 2,274 Climbing Los Angeles Center
Wed 03:06:53 PM 34.6939 -117.4800 82° East 459 528 32,200 1,548 Climbing Los Angeles Center
Wed 03:07:55 PM 34.7097 -117.3211 83° East 476 548 33,100 1,161 Climbing Los Angeles Center
Wed 03:08:57 PM 34.7267 -117.1589 83° East 487 560 34,600 1,790 Climbing Los Angeles Center
Wed 03:09:59 PM 34.7414 -116.9983 84° East 487 560 36,800 2,419 Climbing Los Angeles Center
Wed 03:11:01 PM 34.7564 -116.8503 83° East 457 526 39,600 1,708 Climbing Los Angeles Center
Wed 03:12:16 PM 34.7767 -116.6492 83° East 433 498 40,700 613 Climbing Los Angeles Center
Wed 03:13:18 PM 34.7917 -116.4967 83° East 448 516 41,000 145 Climbing Los Angeles Center
Wed 03:14:20 PM 34.7956 -116.3336 88° East 471 542 41,000 387 Level Los Angeles Center
Wed 03:15:22 PM 34.7936 -116.1756 91° East 480 552 41,800 726 Climbing Los Angeles Center
Wed 03:16:24 PM 34.7922 -116.0139 91° East 480 552 42,500 581 Climbing Los Angeles Center
Wed 03:17:26 PM 34.7897 -115.8539 91° East 476 548 43,000 532 Climbing Los Angeles Center
Wed 03:18:28 PM 34.7878 -115.6586 91° East 481 554 43,600 485 Climbing Los Angeles Center
Wed 03:19:42 PM 34.7858 -115.5122 91° East 480 552 44,100 529 Climbing Los Angeles Center
Wed 03:20:44 PM 34.7822 -115.2858 91° East 480 552 44,800 435 Climbing Los Angeles Center
Wed 03:21:46 PM 34.7789 -115.1242 91° East 480 552 45,000 97 Climbing Los Angeles Center
Wed 03:22:48 PM 34.7750 -114.9594 92° East 487 560 45,000  Level Los Angeles Center
Wed 03:23:51 PM 34.7719 -114.7931 91° East 492 566 45,000  Level Los Angeles Center
Wed 03:24:53 PM 34.7681 -114.6250 92° East 499 574 45,000  Level Los Angeles Center
Wed 03:25:55 PM 34.7642 -114.4592 92° East 493 567 45,000  Level Los Angeles Center
Wed 03:26:57 PM 34.7608 -114.2575 91° East 498 573 45,000  Level Los Angeles Center
Wed 03:27:59 PM 34.7556 -114.0889 92° East 499 574 45,000  Level Los Angeles Center
Wed 03:29:13 PM 34.7508 -113.9211 92° East 499 574 45,000  Level Los Angeles Center
Wed 03:29:48 PM 34.7475 -113.7844 92° East 502 578 45,000  Level Albuquerque Center
Wed 03:30:50 PM 34.7414 -113.6175 93° East 498 573 45,000  Level Albuquerque Center
Wed 03:31:52 PM 34.7378 -113.4461 91° East 503 579 45,000  Level Albuquerque Center
Wed 03:32:54 PM 34.7317 -113.2758 92° East 501 577 45,000  Level Albuquerque Center
Wed 03:33:56 PM 34.7264 -113.1056 92° East 504 580 45,000  Level Albuquerque Center
Wed 03:34:58 PM 34.7189 -112.9033 93° East 501 577 45,000  Level Albuquerque Center
Wed 03:35:59 PM 34.7128 -112.7331 92° East 503 579 45,000  Level Albuquerque Center
Wed 03:37:01 PM 34.7061 -112.5639 93° East 502 578 45,000  Level Albuquerque Center
Wed 03:38:03 PM 34.7044 -112.3969 91° East 496 571 45,000  Level Albuquerque Center
Wed 03:39:05 PM 34.7089 -112.2281 88° East 497 572 45,000  Level Albuquerque Center
Wed 03:40:07 PM 34.7103 -112.0575 89° East 500 575 45,000  Level Albuquerque Center
Wed 03:41:09 PM 34.7133 -111.8881 89° East 502 578 45,000  Level Albuquerque Center
Wed 03:42:10 PM 34.7147 -111.7169 89° East 503 579 45,000  Level Albuquerque Center
Wed 03:43:12 PM 34.7169 -111.5142 89° East 500 575 45,000  Level Albuquerque Center
Wed 03:44:14 PM 34.7183 -111.3461 89° East 497 572 45,000  Level Albuquerque Center
Wed 03:45:16 PM 34.7197 -111.1764 89° East 500 575 45,000  Level Albuquerque Center
Wed 03:46:18 PM 34.7211 -111.0078 89° East 500 575 45,000  Level Albuquerque Center
Wed 03:47:20 PM 34.7228 -110.8369 89° East 501 577 45,000  Level Albuquerque Center
Wed 03:48:22 PM 34.7228 -110.6583 90° East 501 577 45,000  Level Albuquerque Center
Wed 03:49:24 PM 34.7242 -110.4714 89° East 498 573 45,000  Level Albuquerque Center
Wed 03:50:25 PM 34.7256 -110.3114 89° East 498 573 45,000  Level Albuquerque Center
Wed 03:51:27 PM 34.7233 -110.1222 91° East 500 575 45,000  Level Albuquerque Center
Wed 03:52:29 PM 34.7233 -109.9603 90° East 502 578 45,000  Level Albuquerque Center
Wed 03:53:31 PM 34.7217 -109.7697 91° East 505 581 45,000  Level Albuquerque Center
Wed 03:54:33 PM 34.7217 -109.6086 90° East 503 579 45,000  Level Albuquerque Center
Wed 03:55:35 PM 34.7211 -109.4456 90° East 503 579 45,000  Level Albuquerque Center
Wed 03:56:37 PM 34.7194 -109.2567 91° East 504 580 45,000  Level Albuquerque Center
Wed 03:57:38 PM 34.7192 -109.0947 90° East 503 579 45,000  Level Albuquerque Center
Wed 03:58:40 PM 34.7167 -108.9042 91° East 506 582 45,000  Level Albuquerque Center
Wed 03:59:42 PM 34.7147 -108.7417 91° East 505 581 45,000  Level Albuquerque Center
Wed 04:00:44 PM 34.7125 -108.5519 91° East 504 580 45,000  Level Albuquerque Center
Wed 04:01:46 PM 34.7092 -108.3833 91° East 503 579 45,000  Level Albuquerque Center
Wed 04:02:48 PM 34.7067 -108.2122 91° East 506 582 45,000  Level Albuquerque Center
Wed 04:03:49 PM 34.7028 -108.0406 92° East 509 586 45,000  Level Albuquerque Center
Wed 04:04:51 PM 34.6992 -107.8672 91° East 514 592 45,000  Level Albuquerque Center
Wed 04:05:53 PM 34.6964 -107.6967 91° East 511 588 45,000  Level Albuquerque Center
Wed 04:06:55 PM 34.6917 -107.4914 92° East 509 586 45,000  Level Albuquerque Center
Wed 04:07:57 PM 34.6875 -107.3189 92° East 513 590 45,000  Level Albuquerque Center
Wed 04:08:59 PM 34.6833 -107.1500 92° East 508 585 45,000  Level Albuquerque Center
Wed 04:10:01 PM 34.6775 -106.9819 92° East 504 580 45,000  Level Albuquerque Center
Wed 04:11:02 PM 34.6719 -106.8158 92° East 501 577 45,000  Level Albuquerque Center
Wed 04:12:04 PM 34.6658 -106.6156 92° East 500 575 45,000  Level Albuquerque Center
Wed 04:13:06 PM 34.6603 -106.4469 92° East 502 578 45,000  Level Albuquerque Center
Wed 04:14:08 PM 34.6547 -106.2786 92° East 503 579 45,000  Level Albuquerque Center
Wed 04:15:10 PM 34.6497 -106.0900 92° East 503 579 45,000  Level Albuquerque Center
Wed 04:16:12 PM 34.6431 -105.9172 93° East 507 583 45,000  Level Albuquerque Center
Wed 04:17:14 PM 34.6350 -105.7450 93° East 508 585 45,000  Level Albuquerque Center
Wed 04:18:16 PM 34.6308 -105.5739 92° East 505 581 45,000  Level Albuquerque Center
Wed 04:19:18 PM 34.6228 -105.4019 93° East 505 581 45,000 49 Level Albuquerque Center
Wed 04:20:19 PM 34.6169 -105.2336 92° East 501 577 45,100 49 Climbing Albuquerque Center
Wed 04:21:21 PM 34.6100 -105.0681 93° East 491 565 45,100 -48 Level Albuquerque Center
Wed 04:22:23 PM 34.6011 -104.8769 93° East 484 557 45,000 -48 Descending Albuquerque Center
Wed 04:23:25 PM 34.5944 -104.7125 93° East 484 557 45,000  Level Albuquerque Center
Wed 04:24:27 PM 34.5867 -104.5450 93° East 492 566 45,000  Level Albuquerque Center
Wed 04:25:29 PM 34.5792 -104.3747 93° East 500 575 45,000  Level Albuquerque Center
Wed 04:26:31 PM 34.5703 -104.2014 94° East 510 587 45,000  Level Albuquerque Center
Wed 04:27:33 PM 34.5625 -104.0317 93° East 506 582 45,000  Level Albuquerque Center
Wed 04:28:34 PM 34.5519 -103.8350 94° East 501 577 45,000  Level Albuquerque Center
Wed 04:29:36 PM 34.5428 -103.6689 94° East 494 568 45,000  Level Albuquerque Center
Wed 04:30:38 PM 34.5342 -103.5036 94° East 490 564 45,000  Level Albuquerque Center
Wed 04:31:40 PM 34.5236 -103.3381 94° East 491 565 45,000  Level Albuquerque Center
Wed 04:32:42 PM 34.5153 -103.1725 93° East 489 563 45,000  Level Albuquerque Center
Wed 04:33:44 PM 34.5044 -103.0067 94° East 491 565 45,000  Level Albuquerque Center
Wed 04:34:46 PM 34.4947 -102.8417 94° East 489 563 45,000  Level Albuquerque Center
Wed 04:35:48 PM 34.4769 -102.6622 97° East 489 563 45,000  Level Albuquerque Center
Wed 04:36:50 PM 34.4600 -102.4967 97° East 494 568 45,000  Level Albuquerque Center
Wed 04:37:52 PM 34.4422 -102.3317 97° East 497 572 45,000  Level Albuquerque Center
Wed 04:38:54 PM 34.4242 -102.1661 97° East 498 573 45,000  Level Albuquerque Center
Wed 04:39:56 PM 34.4031 -101.9683 97° East 498 573 45,000  Level Albuquerque Center
Wed 04:40:58 PM 34.3847 -101.8006 97° East 502 578 45,000  Level Albuquerque Center
Wed 04:42:00 PM 34.3664 -101.6317 97° East 507 583 45,000  Level Albuquerque Center
Wed 04:42:18 PM 34.3644 -101.5897 93° East 505 581 45,000  Level Fort Worth Center
Wed 04:43:18 PM 34.3411 -101.4050 99° East 505 581 45,000  Level Fort Worth Center
Wed 04:44:18 PM 34.3214 -101.2381 98° East 505 581 45,000  Level Fort Worth Center
Wed 04:45:18 PM 34.3014 -101.0714 98° East 505 581 45,000  Level Fort Worth Center
Wed 04:46:18 PM 34.2831 -100.9072 98° East 505 581 45,000  Level Fort Worth Center
Wed 04:47:18 PM 34.2647 -100.7406 98° East 505 581 45,000  Level Fort Worth Center
Wed 04:48:18 PM 34.2439 -100.5714 98° East 505 581 45,000  Level Fort Worth Center
Wed 04:49:18 PM 34.2250 -100.4100 98° East 499 574 45,000  Level Fort Worth Center
Wed 04:50:18 PM 34.2017 -100.2486 100° East 493 567 45,000  Level Fort Worth Center
Wed 04:51:18 PM 34.1614 -100.0917 107° East 487 560 45,000  Level Fort Worth Center
Wed 04:52:18 PM 34.1189 -99.9297 108° East 499 574 45,000  Level Fort Worth Center
Wed 04:53:18 PM 34.0781 -99.7706 107° East 499 574 45,000 -150 Level Fort Worth Center
Wed 04:54:18 PM 34.0369 -99.6142 108° East 499 574 44,700 -700 Descending Fort Worth Center
Wed 04:55:18 PM 33.9939 -99.4528 108° East 499 574 43,600 -1,300 Descending Fort Worth Center
Wed 04:56:18 PM 33.9525 -99.2939 107° East 499 574 42,100 -1,350 Descending Fort Worth Center
Wed 04:57:18 PM 33.9169 -99.1656 108° East 486 559 40,900 -1,650 Descending Fort Worth Center
Wed 04:58:18 PM 33.8792 -99.0197 107° East 470 541 38,800 -2,300 Descending Fort Worth Center
Wed 04:59:18 PM 33.8392 -98.8689 108° East 465 535 36,300 -2,550 Descending Fort Worth Center
Wed 05:00:18 PM 33.7992 -98.7233 108° East 465 535 33,700 -2,650 Descending Fort Worth Center
Wed 05:01:18 PM 33.7589 -98.5753 108° East 465 535 31,000 -2,700 Descending Fort Worth Center
Wed 05:02:18 PM 33.7164 -98.4247 109° East 465 535 28,300 -2,750 Descending Fort Worth Center
Wed 05:03:18 PM 33.6797 -98.2847 107° East 460 529 25,500 -2,750 Descending Fort Worth Center
Wed 05:04:18 PM 33.6767 -98.1472 91° East 419 482 22,800 -2,350 Descending Fort Worth Center
Wed 05:05:18 PM 33.6856 -98.0075 86° East 419 482 20,800 -1,900 Descending Fort Worth Center
Wed 05:06:18 PM 33.6967 -97.8803 84° East 405 466 19,000 -1,850 Descending Fort Worth Center
Wed 05:07:18 PM 33.6969 -97.7456 90° East 381 438 17,100 -1,950 Descending Fort Worth Center
Wed 05:08:18 PM 33.6181 -97.6556 136° Southeast 342 394 15,100 -1,850 Descending Fort Worth Center
Wed 05:09:18 PM 33.5472 -97.5781 138° Southeast 359 413 13,400 -1,750 Descending Fort Worth Center
Wed 05:10:18 PM 33.4719 -97.4931 137° Southeast 351 404 11,600 -1,350 Descending Fort Worth Center
Wed 05:11:18 PM 33.4075 -97.4233 138° Southeast 325 374 10,700 -1,000 Descending Fort Worth Center
Wed 05:12:18 PM 33.3594 -97.3564 131° Southeast 309 356 9,600 -1,350 Descending Fort Worth Center
Wed 05:13:18 PM 33.3656 -97.2542 86° East 261 300 8,000 -1,450 Descending Fort Worth Center
Wed 05:14:18 PM 33.3739 -97.1622 84° East 261 300 6,700 -1,500 Descending Fort Worth Center
Wed 05:15:18 PM 33.3653 -97.0803 97° East 273 314 5,000 -1,350 Descending Fort Worth Center
Wed 05:16:18 PM 33.3567 -96.9883 96° East 257 296 4,000 -500 Descending Fort Worth Center
Wed 05:17:18 PM 33.3417 -96.9111 103° East 251 289 4,000 50 Level Fort Worth Center
Wed 05:18:18 PM 33.3183 -96.8242 108° East 256 295 4,100  Climbing Fort Worth Center
Wed 05:19:18 PM 33.2578 -96.7925 156° South 232 267 4,000 -50 Descending Fort Worth Center
Wed 05:20:18 PM 33.1889 -96.7878 177° South 238 274 4,000 50 Level Fort Worth Center
Wed 05:21:18 PM 33.1283 -96.7808 175° South 233 268 4,100  Climbing Fort Worth Center
Wed 05:22:18 PM 33.0656 -96.7764 177° South 233 268 4,000 -95 Descending Fort Worth Center
Wed 05:23:24 PM 33.0000 -96.7833 185° South 223 257 3,900 -48 Descending Dallas / Fort Worth TRACON
Wed 05:24:24 PM 32.9833 -96.8500 253° West 241 277 3,900  Level Dallas / Fort Worth TRACON
Wed 05:25:24 PM 32.9667 -96.9167 253° West 194 223 3,900 -421 Level Dallas / Fort Worth TRACON
Wed 05:26:18 PM 32.9333 -96.9500 220° Southwest 191 220 3,100 -900 Descending Dallas / Fort Worth TRACON
Wed 05:27:24 PM 32.9000 -96.9333 157° South 152 175 2,100 -762 Descending Dallas / Fort Worth TRACON
Wed 05:28:24 PM 32.8833 -96.8833 112° Southeast 133 153 1,500 -600 Descending Dallas / Fort Worth TRACON

Login

Don't have an account? Register now (free) for customized features, flight alerts, and more!